sensor_id;sensor_type;location;lat;lon;timestamp;P1;durP1;ratioP1;P2;durP2;ratioP2
60502;SDS011;51448;51.660;5.824;2024-03-22T00:02:15;48.28;;;26.50;;
60502;SDS011;51448;51.660;5.824;2024-03-22T00:04:41;51.25;;;25.25;;
60502;SDS011;51448;51.660;5.824;2024-03-22T00:07:08;47.88;;;26.58;;
60502;SDS011;51448;51.660;5.824;2024-03-22T00:09:35;48.17;;;26.08;;
60502;SDS011;51448;51.660;5.824;2024-03-22T00:12:01;52.88;;;28.05;;
60502;SDS011;51448;51.660;5.824;2024-03-22T00:14:28;55.17;;;29.25;;
60502;SDS011;51448;51.660;5.824;2024-03-22T00:16:55;49.22;;;28.13;;
60502;SDS011;51448;51.660;5.824;2024-03-22T00:19:22;53.85;;;29.35;;
60502;SDS011;51448;51.660;5.824;2024-03-22T00:21:49;50.28;;;27.42;;
60502;SDS011;51448;51.660;5.824;2024-03-22T00:24:15;53.22;;;30.05;;
60502;SDS011;51448;51.660;5.824;2024-03-22T00:26:42;53.25;;;29.05;;
60502;SDS011;51448;51.660;5.824;2024-03-22T00:29:15;48.63;;;27.02;;
60502;SDS011;51448;51.660;5.824;2024-03-22T00:31:42;50.67;;;28.40;;
60502;SDS011;51448;51.660;5.824;2024-03-22T00:34:08;48.35;;;26.23;;
60502;SDS011;51448;51.660;5.824;2024-03-22T00:36:35;56.05;;;28.58;;
60502;SDS011;51448;51.660;5.824;2024-03-22T00:39:02;53.85;;;28.02;;
60502;SDS011;51448;51.660;5.824;2024-03-22T00:41:29;55.67;;;28.05;;
60502;SDS011;51448;51.660;5.824;2024-03-22T00:43:56;54.47;;;29.25;;
60502;SDS011;51448;51.660;5.824;2024-03-22T00:46:24;56.25;;;29.05;;
60502;SDS011;51448;51.660;5.824;2024-03-22T00:48:51;48.08;;;26.33;;
60502;SDS011;51448;51.660;5.824;2024-03-22T00:51:17;50.15;;;28.80;;
60502;SDS011;51448;51.660;5.824;2024-03-22T00:53:44;50.90;;;27.83;;
60502;SDS011;51448;51.660;5.824;2024-03-22T00:56:11;46.72;;;28.63;;
60502;SDS011;51448;51.660;5.824;2024-03-22T00:58:37;51.47;;;30.92;;
60502;SDS011;51448;51.660;5.824;2024-03-22T01:01:04;47.85;;;27.52;;
60502;SDS011;51448;51.660;5.824;2024-03-22T01:03:31;52.28;;;29.67;;
60502;SDS011;51448;51.660;5.824;2024-03-22T01:05:57;53.97;;;28.08;;
60502;SDS011;51448;51.660;5.824;2024-03-22T01:08:24;55.85;;;29.77;;
60502;SDS011;51448;51.660;5.824;2024-03-22T01:10:51;54.00;;;28.15;;
60502;SDS011;51448;51.660;5.824;2024-03-22T01:13:18;55.45;;;29.48;;
60502;SDS011;51448;51.660;5.824;2024-03-22T01:15:44;48.10;;;28.58;;
60502;SDS011;51448;51.660;5.824;2024-03-22T01:18:12;50.72;;;28.48;;
60502;SDS011;51448;51.660;5.824;2024-03-22T01:20:39;51.05;;;28.40;;
60502;SDS011;51448;51.660;5.824;2024-03-22T01:23:05;57.75;;;29.75;;
60502;SDS011;51448;51.660;5.824;2024-03-22T01:25:32;52.85;;;29.42;;
60502;SDS011;51448;51.660;5.824;2024-03-22T01:27:59;53.78;;;29.20;;
60502;SDS011;51448;51.660;5.824;2024-03-22T01:30:25;45.35;;;27.85;;
60502;SDS011;51448;51.660;5.824;2024-03-22T01:32:54;50.63;;;28.05;;
60502;SDS011;51448;51.660;5.824;2024-03-22T01:35:22;50.95;;;28.15;;
60502;SDS011;51448;51.660;5.824;2024-03-22T01:37:51;51.78;;;28.00;;
60502;SDS011;51448;51.660;5.824;2024-03-22T01:40:18;49.42;;;28.33;;
60502;SDS011;51448;51.660;5.824;2024-03-22T01:42:44;50.50;;;30.60;;
60502;SDS011;51448;51.660;5.824;2024-03-22T01:45:11;45.67;;;27.58;;
60502;SDS011;51448;51.660;5.824;2024-03-22T01:47:41;60.20;;;31.30;;
60502;SDS011;51448;51.660;5.824;2024-03-22T01:50:08;54.60;;;30.33;;
60502;SDS011;51448;51.660;5.824;2024-03-22T01:52:38;51.55;;;29.85;;
60502;SDS011;51448;51.660;5.824;2024-03-22T01:55:06;56.65;;;29.98;;
60502;SDS011;51448;51.660;5.824;2024-03-22T01:57:34;52.00;;;29.25;;
60502;SDS011;51448;51.660;5.824;2024-03-22T02:00:03;50.17;;;30.35;;
60502;SDS011;51448;51.660;5.824;2024-03-22T02:02:39;48.03;;;28.88;;
60502;SDS011;51448;51.660;5.824;2024-03-22T02:05:16;47.83;;;28.15;;
60502;SDS011;51448;51.660;5.824;2024-03-22T02:07:47;49.00;;;28.23;;
60502;SDS011;51448;51.660;5.824;2024-03-22T02:10:14;53.40;;;30.25;;
60502;SDS011;51448;51.660;5.824;2024-03-22T02:12:42;51.75;;;29.10;;
60502;SDS011;51448;51.660;5.824;2024-03-22T02:15:09;50.03;;;29.10;;
60502;SDS011;51448;51.660;5.824;2024-03-22T02:17:36;48.78;;;30.02;;
60502;SDS011;51448;51.660;5.824;2024-03-22T02:20:02;51.72;;;29.33;;
60502;SDS011;51448;51.660;5.824;2024-03-22T02:22:31;50.55;;;29.30;;
60502;SDS011;51448;51.660;5.824;2024-03-22T02:24:58;51.60;;;29.27;;
60502;SDS011;51448;51.660;5.824;2024-03-22T02:27:25;45.63;;;28.88;;
60502;SDS011;51448;51.660;5.824;2024-03-22T02:29:52;53.78;;;29.50;;
60502;SDS011;51448;51.660;5.824;2024-03-22T02:32:19;48.38;;;28.13;;
60502;SDS011;51448;51.660;5.824;2024-03-22T02:34:45;48.42;;;27.90;;
60502;SDS011;51448;51.660;5.824;2024-03-22T02:37:12;47.17;;;29.73;;
60502;SDS011;51448;51.660;5.824;2024-03-22T02:39:39;48.65;;;29.00;;
60502;SDS011;51448;51.660;5.824;2024-03-22T02:42:06;48.05;;;27.88;;
60502;SDS011;51448;51.660;5.824;2024-03-22T02:44:32;48.08;;;28.40;;
60502;SDS011;51448;51.660;5.824;2024-03-22T02:46:59;49.55;;;27.80;;
60502;SDS011;51448;51.660;5.824;2024-03-22T02:49:26;48.67;;;26.92;;
60502;SDS011;51448;51.660;5.824;2024-03-22T02:51:52;48.78;;;28.20;;
60502;SDS011;51448;51.660;5.824;2024-03-22T02:54:19;44.80;;;27.83;;
60502;SDS011;51448;51.660;5.824;2024-03-22T02:56:46;46.58;;;26.02;;
60502;SDS011;51448;51.660;5.824;2024-03-22T02:59:12;47.47;;;26.42;;
60502;SDS011;51448;51.660;5.824;2024-03-22T03:01:39;45.92;;;27.67;;
60502;SDS011;51448;51.660;5.824;2024-03-22T03:04:06;43.17;;;26.00;;
60502;SDS011;51448;51.660;5.824;2024-03-22T03:06:32;42.00;;;26.05;;
60502;SDS011;51448;51.660;5.824;2024-03-22T03:08:59;40.83;;;25.83;;
60502;SDS011;51448;51.660;5.824;2024-03-22T03:11:26;45.78;;;27.05;;
60502;SDS011;51448;51.660;5.824;2024-03-22T03:13:53;41.42;;;25.77;;
60502;SDS011;51448;51.660;5.824;2024-03-22T03:16:19;43.30;;;25.70;;
60502;SDS011;51448;51.660;5.824;2024-03-22T03:18:46;42.45;;;25.63;;
60502;SDS011;51448;51.660;5.824;2024-03-22T03:21:13;41.75;;;26.95;;
60502;SDS011;51448;51.660;5.824;2024-03-22T03:23:40;41.47;;;25.70;;
60502;SDS011;51448;51.660;5.824;2024-03-22T03:26:06;39.63;;;25.27;;
60502;SDS011;51448;51.660;5.824;2024-03-22T03:28:33;39.22;;;25.58;;
60502;SDS011;51448;51.660;5.824;2024-03-22T03:31:00;41.05;;;25.15;;
60502;SDS011;51448;51.660;5.824;2024-03-22T03:33:26;43.83;;;25.90;;
60502;SDS011;51448;51.660;5.824;2024-03-22T03:35:53;41.13;;;25.20;;
60502;SDS011;51448;51.660;5.824;2024-03-22T03:38:20;41.20;;;25.58;;
60502;SDS011;51448;51.660;5.824;2024-03-22T03:40:47;43.67;;;26.70;;
60502;SDS011;51448;51.660;5.824;2024-03-22T03:43:14;38.28;;;25.45;;
60502;SDS011;51448;51.660;5.824;2024-03-22T03:45:41;37.88;;;25.13;;
60502;SDS011;51448;51.660;5.824;2024-03-22T03:48:08;42.28;;;26.20;;
60502;SDS011;51448;51.660;5.824;2024-03-22T03:50:35;38.95;;;24.83;;
60502;SDS011;51448;51.660;5.824;2024-03-22T03:53:01;37.60;;;24.05;;
60502;SDS011;51448;51.660;5.824;2024-03-22T03:55:28;34.65;;;24.60;;
60502;SDS011;51448;51.660;5.824;2024-03-22T03:57:55;37.45;;;24.33;;
60502;SDS011;51448;51.660;5.824;2024-03-22T04:00:21;41.45;;;24.17;;
60502;SDS011;51448;51.660;5.824;2024-03-22T04:02:49;35.42;;;24.45;;
60502;SDS011;51448;51.660;5.824;2024-03-22T04:05:16;35.92;;;23.50;;
60502;SDS011;51448;51.660;5.824;2024-03-22T04:07:46;37.88;;;23.95;;
60502;SDS011;51448;51.660;5.824;2024-03-22T04:10:14;35.65;;;23.80;;
60502;SDS011;51448;51.660;5.824;2024-03-22T04:12:40;37.38;;;24.00;;
60502;SDS011;51448;51.660;5.824;2024-03-22T04:15:07;40.38;;;26.05;;
60502;SDS011;51448;51.660;5.824;2024-03-22T04:17:34;37.00;;;24.98;;
60502;SDS011;51448;51.660;5.824;2024-03-22T04:20:01;35.95;;;23.85;;
60502;SDS011;51448;51.660;5.824;2024-03-22T04:22:30;34.40;;;24.00;;
60502;SDS011;51448;51.660;5.824;2024-03-22T04:24:57;37.25;;;24.60;;
60502;SDS011;51448;51.660;5.824;2024-03-22T04:27:23;38.35;;;23.23;;
60502;SDS011;51448;51.660;5.824;2024-03-22T04:29:50;41.20;;;22.73;;
60502;SDS011;51448;51.660;5.824;2024-03-22T04:32:17;42.45;;;24.77;;
60502;SDS011;51448;51.660;5.824;2024-03-22T04:34:44;41.20;;;23.70;;
60502;SDS011;51448;51.660;5.824;2024-03-22T04:37:11;42.58;;;25.33;;
60502;SDS011;51448;51.660;5.824;2024-03-22T04:39:38;38.13;;;24.65;;
60502;SDS011;51448;51.660;5.824;2024-03-22T04:42:06;38.53;;;23.42;;
60502;SDS011;51448;51.660;5.824;2024-03-22T04:44:33;32.42;;;21.88;;
60502;SDS011;51448;51.660;5.824;2024-03-22T04:47:00;41.60;;;23.30;;
60502;SDS011;51448;51.660;5.824;2024-03-22T04:49:27;35.17;;;23.67;;
60502;SDS011;51448;51.660;5.824;2024-03-22T04:51:53;35.30;;;23.17;;
60502;SDS011;51448;51.660;5.824;2024-03-22T04:54:20;36.00;;;22.08;;
60502;SDS011;51448;51.660;5.824;2024-03-22T04:56:47;35.55;;;22.55;;
60502;SDS011;51448;51.660;5.824;2024-03-22T04:59:14;35.03;;;23.48;;
60502;SDS011;51448;51.660;5.824;2024-03-22T05:01:40;36.35;;;23.92;;
60502;SDS011;51448;51.660;5.824;2024-03-22T05:04:10;35.17;;;24.42;;
60502;SDS011;51448;51.660;5.824;2024-03-22T05:06:37;40.38;;;24.75;;
60502;SDS011;51448;51.660;5.824;2024-03-22T05:09:03;35.65;;;24.42;;
60502;SDS011;51448;51.660;5.824;2024-03-22T05:11:30;36.75;;;23.65;;
60502;SDS011;51448;51.660;5.824;2024-03-22T05:13:57;33.30;;;23.67;;
60502;SDS011;51448;51.660;5.824;2024-03-22T05:16:24;34.50;;;23.58;;
60502;SDS011;51448;51.660;5.824;2024-03-22T05:18:50;36.20;;;23.83;;
60502;SDS011;51448;51.660;5.824;2024-03-22T05:21:17;36.42;;;22.77;;
60502;SDS011;51448;51.660;5.824;2024-03-22T05:23:44;36.35;;;23.25;;
60502;SDS011;51448;51.660;5.824;2024-03-22T05:26:10;38.42;;;23.60;;
60502;SDS011;51448;51.660;5.824;2024-03-22T05:28:37;34.22;;;22.52;;
60502;SDS011;51448;51.660;5.824;2024-03-22T05:31:04;35.58;;;24.50;;
60502;SDS011;51448;51.660;5.824;2024-03-22T05:33:30;36.13;;;23.13;;
60502;SDS011;51448;51.660;5.824;2024-03-22T05:35:58;36.17;;;23.42;;
60502;SDS011;51448;51.660;5.824;2024-03-22T05:38:25;33.95;;;22.30;;
60502;SDS011;51448;51.660;5.824;2024-03-22T05:40:51;32.92;;;22.90;;
60502;SDS011;51448;51.660;5.824;2024-03-22T05:43:18;33.95;;;23.23;;
60502;SDS011;51448;51.660;5.824;2024-03-22T05:45:45;38.88;;;24.25;;
60502;SDS011;51448;51.660;5.824;2024-03-22T05:48:11;32.50;;;22.25;;
60502;SDS011;51448;51.660;5.824;2024-03-22T05:50:38;36.53;;;22.58;;
60502;SDS011;51448;51.660;5.824;2024-03-22T05:53:05;35.13;;;22.75;;
60502;SDS011;51448;51.660;5.824;2024-03-22T05:55:31;37.58;;;22.67;;
60502;SDS011;51448;51.660;5.824;2024-03-22T05:57:58;32.90;;;21.98;;
60502;SDS011;51448;51.660;5.824;2024-03-22T06:00:25;32.17;;;21.88;;
60502;SDS011;51448;51.660;5.824;2024-03-22T06:02:52;35.67;;;22.15;;
60502;SDS011;51448;51.660;5.824;2024-03-22T06:05:18;37.22;;;23.00;;
60502;SDS011;51448;51.660;5.824;2024-03-22T06:07:45;32.20;;;21.20;;
60502;SDS011;51448;51.660;5.824;2024-03-22T06:10:12;35.22;;;23.13;;
60502;SDS011;51448;51.660;5.824;2024-03-22T06:12:39;33.70;;;22.88;;
60502;SDS011;51448;51.660;5.824;2024-03-22T06:15:07;34.35;;;21.83;;
60502;SDS011;51448;51.660;5.824;2024-03-22T06:17:34;31.33;;;20.38;;
60502;SDS011;51448;51.660;5.824;2024-03-22T06:20:00;35.50;;;21.92;;
60502;SDS011;51448;51.660;5.824;2024-03-22T06:22:28;33.97;;;22.50;;
60502;SDS011;51448;51.660;5.824;2024-03-22T06:24:54;28.73;;;19.80;;
60502;SDS011;51448;51.660;5.824;2024-03-22T06:27:21;28.35;;;19.60;;
60502;SDS011;51448;51.660;5.824;2024-03-22T06:29:48;33.60;;;20.75;;
60502;SDS011;51448;51.660;5.824;2024-03-22T06:32:14;33.60;;;20.83;;
60502;SDS011;51448;51.660;5.824;2024-03-22T06:34:41;31.88;;;20.80;;
60502;SDS011;51448;51.660;5.824;2024-03-22T06:37:08;31.42;;;20.80;;
60502;SDS011;51448;51.660;5.824;2024-03-22T06:39:35;32.03;;;20.27;;
60502;SDS011;51448;51.660;5.824;2024-03-22T06:42:02;32.38;;;20.08;;
60502;SDS011;51448;51.660;5.824;2024-03-22T06:44:32;29.05;;;20.17;;
60502;SDS011;51448;51.660;5.824;2024-03-22T06:46:58;32.42;;;20.20;;
60502;SDS011;51448;51.660;5.824;2024-03-22T06:49:25;31.40;;;20.40;;
60502;SDS011;51448;51.660;5.824;2024-03-22T06:51:52;31.35;;;20.05;;
60502;SDS011;51448;51.660;5.824;2024-03-22T06:54:19;29.75;;;18.80;;
60502;SDS011;51448;51.660;5.824;2024-03-22T06:56:46;27.80;;;19.52;;
60502;SDS011;51448;51.660;5.824;2024-03-22T06:59:12;28.65;;;17.90;;
60502;SDS011;51448;51.660;5.824;2024-03-22T07:01:39;26.35;;;18.13;;
60502;SDS011;51448;51.660;5.824;2024-03-22T07:04:06;26.23;;;18.58;;
60502;SDS011;51448;51.660;5.824;2024-03-22T07:06:33;32.25;;;20.05;;
60502;SDS011;51448;51.660;5.824;2024-03-22T07:09:00;28.48;;;18.90;;
60502;SDS011;51448;51.660;5.824;2024-03-22T07:11:27;28.58;;;18.92;;
60502;SDS011;51448;51.660;5.824;2024-03-22T07:13:53;30.77;;;19.50;;
60502;SDS011;51448;51.660;5.824;2024-03-22T07:16:20;27.77;;;18.27;;
60502;SDS011;51448;51.660;5.824;2024-03-22T07:18:47;29.15;;;19.15;;
60502;SDS011;51448;51.660;5.824;2024-03-22T07:21:14;27.17;;;17.85;;
60502;SDS011;51448;51.660;5.824;2024-03-22T07:23:41;25.50;;;17.85;;
60502;SDS011;51448;51.660;5.824;2024-03-22T07:26:08;25.45;;;16.65;;
60502;SDS011;51448;51.660;5.824;2024-03-22T07:28:35;31.02;;;18.35;;
60502;SDS011;51448;51.660;5.824;2024-03-22T07:31:01;29.13;;;18.25;;
60502;SDS011;51448;51.660;5.824;2024-03-22T07:33:28;27.98;;;18.27;;
60502;SDS011;51448;51.660;5.824;2024-03-22T07:36:01;28.15;;;18.17;;
60502;SDS011;51448;51.660;5.824;2024-03-22T07:38:32;28.00;;;17.45;;
60502;SDS011;51448;51.660;5.824;2024-03-22T07:40:59;32.10;;;18.10;;
60502;SDS011;51448;51.660;5.824;2024-03-22T07:43:25;26.17;;;17.52;;
60502;SDS011;51448;51.660;5.824;2024-03-22T07:45:52;26.23;;;16.52;;
60502;SDS011;51448;51.660;5.824;2024-03-22T07:48:19;25.70;;;16.73;;
60502;SDS011;51448;51.660;5.824;2024-03-22T07:50:45;22.60;;;16.42;;
60502;SDS011;51448;51.660;5.824;2024-03-22T07:53:12;23.88;;;15.80;;
60502;SDS011;51448;51.660;5.824;2024-03-22T07:55:40;22.38;;;15.95;;
60502;SDS011;51448;51.660;5.824;2024-03-22T07:58:06;22.90;;;16.50;;
60502;SDS011;51448;51.660;5.824;2024-03-22T08:00:33;25.35;;;17.02;;
60502;SDS011;51448;51.660;5.824;2024-03-22T08:03:00;23.05;;;15.60;;
60502;SDS011;51448;51.660;5.824;2024-03-22T08:05:26;23.92;;;17.00;;
60502;SDS011;51448;51.660;5.824;2024-03-22T08:07:53;24.35;;;16.90;;
60502;SDS011;51448;51.660;5.824;2024-03-22T08:10:20;22.83;;;16.85;;
60502;SDS011;51448;51.660;5.824;2024-03-22T08:12:46;25.45;;;16.67;;
60502;SDS011;51448;51.660;5.824;2024-03-22T08:15:13;22.95;;;16.90;;
60502;SDS011;51448;51.660;5.824;2024-03-22T08:17:40;26.25;;;17.40;;
60502;SDS011;51448;51.660;5.824;2024-03-22T08:20:07;24.77;;;17.50;;
60502;SDS011;51448;51.660;5.824;2024-03-22T08:22:34;26.73;;;17.17;;
60502;SDS011;51448;51.660;5.824;2024-03-22T08:25:00;27.63;;;17.73;;
60502;SDS011;51448;51.660;5.824;2024-03-22T08:27:28;28.50;;;18.58;;
60502;SDS011;51448;51.660;5.824;2024-03-22T08:29:55;25.00;;;17.17;;
60502;SDS011;51448;51.660;5.824;2024-03-22T08:32:22;28.08;;;18.65;;
60502;SDS011;51448;51.660;5.824;2024-03-22T08:34:49;25.85;;;18.15;;
60502;SDS011;51448;51.660;5.824;2024-03-22T08:37:15;25.70;;;18.08;;
60502;SDS011;51448;51.660;5.824;2024-03-22T08:39:42;26.67;;;18.75;;
60502;SDS011;51448;51.660;5.824;2024-03-22T08:42:09;26.27;;;19.38;;
60502;SDS011;51448;51.660;5.824;2024-03-22T08:44:36;29.73;;;19.70;;
60502;SDS011;51448;51.660;5.824;2024-03-22T08:47:03;27.80;;;18.50;;
60502;SDS011;51448;51.660;5.824;2024-03-22T08:49:29;29.00;;;19.77;;
60502;SDS011;51448;51.660;5.824;2024-03-22T08:51:56;26.85;;;19.58;;
60502;SDS011;51448;51.660;5.824;2024-03-22T08:54:23;28.08;;;18.73;;
60502;SDS011;51448;51.660;5.824;2024-03-22T08:56:49;29.27;;;20.33;;
60502;SDS011;51448;51.660;5.824;2024-03-22T08:59:16;27.35;;;19.95;;
60502;SDS011;51448;51.660;5.824;2024-03-22T09:01:43;25.77;;;18.92;;
60502;SDS011;51448;51.660;5.824;2024-03-22T09:04:09;27.05;;;19.90;;
60502;SDS011;51448;51.660;5.824;2024-03-22T09:06:36;29.27;;;20.50;;
60502;SDS011;51448;51.660;5.824;2024-03-22T09:09:03;29.42;;;20.38;;
60502;SDS011;51448;51.660;5.824;2024-03-22T09:11:29;25.15;;;18.73;;
60502;SDS011;51448;51.660;5.824;2024-03-22T09:13:56;25.90;;;18.80;;
60502;SDS011;51448;51.660;5.824;2024-03-22T09:16:23;27.08;;;19.23;;
60502;SDS011;51448;51.660;5.824;2024-03-22T09:18:50;28.48;;;19.40;;
60502;SDS011;51448;51.660;5.824;2024-03-22T09:21:17;28.95;;;19.92;;
60502;SDS011;51448;51.660;5.824;2024-03-22T09:23:43;26.88;;;19.45;;
60502;SDS011;51448;51.660;5.824;2024-03-22T09:26:10;28.60;;;20.40;;
60502;SDS011;51448;51.660;5.824;2024-03-22T09:28:37;24.48;;;18.42;;
60502;SDS011;51448;51.660;5.824;2024-03-22T09:31:04;27.80;;;19.35;;
60502;SDS011;51448;51.660;5.824;2024-03-22T09:33:36;30.73;;;19.40;;
60502;SDS011;51448;51.660;5.824;2024-03-22T09:36:02;27.63;;;20.25;;
60502;SDS011;51448;51.660;5.824;2024-03-22T09:38:29;26.00;;;19.30;;
60502;SDS011;51448;51.660;5.824;2024-03-22T09:40:56;27.88;;;20.10;;
60502;SDS011;51448;51.660;5.824;2024-03-22T09:43:23;28.90;;;20.02;;
60502;SDS011;51448;51.660;5.824;2024-03-22T09:45:54;26.52;;;19.73;;
60502;SDS011;51448;51.660;5.824;2024-03-22T09:48:21;29.30;;;19.20;;
60502;SDS011;51448;51.660;5.824;2024-03-22T09:50:49;24.63;;;18.33;;
60502;SDS011;51448;51.660;5.824;2024-03-22T09:53:18;24.08;;;18.55;;
60502;SDS011;51448;51.660;5.824;2024-03-22T09:55:48;25.20;;;18.50;;
60502;SDS011;51448;51.660;5.824;2024-03-22T09:58:16;26.13;;;18.75;;
60502;SDS011;51448;51.660;5.824;2024-03-22T10:00:45;29.73;;;19.88;;
60502;SDS011;51448;51.660;5.824;2024-03-22T10:03:12;23.35;;;17.25;;
60502;SDS011;51448;51.660;5.824;2024-03-22T10:05:39;25.20;;;18.15;;
60502;SDS011;51448;51.660;5.824;2024-03-22T10:08:06;24.92;;;17.70;;
60502;SDS011;51448;51.660;5.824;2024-03-22T10:10:33;26.40;;;16.85;;
60502;SDS011;51448;51.660;5.824;2024-03-22T10:13:01;22.60;;;16.63;;
60502;SDS011;51448;51.660;5.824;2024-03-22T10:15:31;20.73;;;16.08;;
60502;SDS011;51448;51.660;5.824;2024-03-22T10:17:57;21.25;;;16.67;;
60502;SDS011;51448;51.660;5.824;2024-03-22T10:20:24;23.30;;;17.40;;
60502;SDS011;51448;51.660;5.824;2024-03-22T10:22:55;22.40;;;16.13;;
60502;SDS011;51448;51.660;5.824;2024-03-22T10:25:26;25.23;;;17.38;;
60502;SDS011;51448;51.660;5.824;2024-03-22T10:27:55;25.33;;;15.75;;
60502;SDS011;51448;51.660;5.824;2024-03-22T10:30:24;22.92;;;16.40;;
60502;SDS011;51448;51.660;5.824;2024-03-22T10:32:51;23.40;;;16.08;;
60502;SDS011;51448;51.660;5.824;2024-03-22T10:35:18;19.45;;;15.25;;
60502;SDS011;51448;51.660;5.824;2024-03-22T10:37:45;21.35;;;15.48;;
60502;SDS011;51448;51.660;5.824;2024-03-22T10:40:12;25.10;;;16.40;;
60502;SDS011;51448;51.660;5.824;2024-03-22T10:42:40;24.70;;;16.73;;
60502;SDS011;51448;51.660;5.824;2024-03-22T10:45:09;23.15;;;16.95;;
60502;SDS011;51448;51.660;5.824;2024-03-22T10:47:37;21.83;;;15.88;;
60502;SDS011;51448;51.660;5.824;2024-03-22T10:52:41;22.45;;;16.63;;
60502;SDS011;51448;51.660;5.824;2024-03-22T10:55:19;21.17;;;16.38;;
60502;SDS011;51448;51.660;5.824;2024-03-22T10:58:15;23.05;;;16.92;;
60502;SDS011;51448;51.660;5.824;2024-03-22T11:00:43;23.27;;;17.08;;
60502;SDS011;51448;51.660;5.824;2024-03-22T11:03:10;19.65;;;15.75;;
60502;SDS011;51448;51.660;5.824;2024-03-22T11:05:46;21.90;;;16.08;;
60502;SDS011;51448;51.660;5.824;2024-03-22T11:08:22;26.55;;;17.13;;
60502;SDS011;51448;51.660;5.824;2024-03-22T11:10:54;22.35;;;16.10;;
60502;SDS011;51448;51.660;5.824;2024-03-22T11:13:23;23.00;;;15.50;;
60502;SDS011;51448;51.660;5.824;2024-03-22T11:15:50;22.58;;;15.57;;
60502;SDS011;51448;51.660;5.824;2024-03-22T11:18:17;25.27;;;15.68;;
60502;SDS011;51448;51.660;5.824;2024-03-22T11:20:44;23.90;;;16.80;;
60502;SDS011;51448;51.660;5.824;2024-03-22T11:23:12;21.90;;;15.48;;
60502;SDS011;51448;51.660;5.824;2024-03-22T11:25:40;22.02;;;16.00;;
60502;SDS011;51448;51.660;5.824;2024-03-22T11:28:06;23.92;;;15.50;;
60502;SDS011;51448;51.660;5.824;2024-03-22T11:30:33;20.98;;;13.90;;
60502;SDS011;51448;51.660;5.824;2024-03-22T11:33:01;25.98;;;14.25;;
60502;SDS011;51448;51.660;5.824;2024-03-22T11:35:29;21.83;;;14.32;;
60502;SDS011;51448;51.660;5.824;2024-03-22T11:37:56;21.95;;;13.52;;
60502;SDS011;51448;51.660;5.824;2024-03-22T11:40:27;17.15;;;12.32;;
60502;SDS011;51448;51.660;5.824;2024-03-22T11:42:56;21.50;;;13.10;;
60502;SDS011;51448;51.660;5.824;2024-03-22T11:45:25;21.23;;;13.18;;
60502;SDS011;51448;51.660;5.824;2024-03-22T11:47:54;19.88;;;12.90;;
60502;SDS011;51448;51.660;5.824;2024-03-22T11:50:20;19.70;;;12.30;;
60502;SDS011;51448;51.660;5.824;2024-03-22T11:52:47;16.10;;;11.32;;
60502;SDS011;51448;51.660;5.824;2024-03-22T11:55:14;17.45;;;10.43;;
60502;SDS011;51448;51.660;5.824;2024-03-22T11:57:41;16.42;;;9.07;;
60502;SDS011;51448;51.660;5.824;2024-03-22T12:00:16;14.43;;;8.82;;
60502;SDS011;51448;51.660;5.824;2024-03-22T12:02:45;16.98;;;10.05;;
60502;SDS011;51448;51.660;5.824;2024-03-22T12:05:12;15.05;;;8.80;;
60502;SDS011;51448;51.660;5.824;2024-03-22T12:07:39;12.82;;;8.90;;
60502;SDS011;51448;51.660;5.824;2024-03-22T12:10:09;13.60;;;8.68;;
60502;SDS011;51448;51.660;5.824;2024-03-22T12:12:37;11.30;;;8.18;;
60502;SDS011;51448;51.660;5.824;2024-03-22T12:15:04;11.57;;;8.52;;
60502;SDS011;51448;51.660;5.824;2024-03-22T12:17:35;11.98;;;8.23;;
60502;SDS011;51448;51.660;5.824;2024-03-22T12:20:03;12.25;;;7.97;;
60502;SDS011;51448;51.660;5.824;2024-03-22T12:22:31;10.70;;;7.72;;
60502;SDS011;51448;51.660;5.824;2024-03-22T12:24:57;9.90;;;8.02;;
60502;SDS011;51448;51.660;5.824;2024-03-22T12:27:25;11.45;;;8.10;;
60502;SDS011;51448;51.660;5.824;2024-03-22T12:29:52;12.20;;;7.68;;
60502;SDS011;51448;51.660;5.824;2024-03-22T12:32:18;11.32;;;8.48;;
60502;SDS011;51448;51.660;5.824;2024-03-22T12:34:45;10.93;;;7.22;;
60502;SDS011;51448;51.660;5.824;2024-03-22T12:37:12;12.32;;;7.93;;
60502;SDS011;51448;51.660;5.824;2024-03-22T12:39:40;13.02;;;8.50;;
60502;SDS011;51448;51.660;5.824;2024-03-22T12:42:07;12.95;;;7.68;;
60502;SDS011;51448;51.660;5.824;2024-03-22T12:44:34;11.68;;;8.07;;
60502;SDS011;51448;51.660;5.824;2024-03-22T12:47:01;11.73;;;7.95;;
60502;SDS011;51448;51.660;5.824;2024-03-22T12:49:27;11.63;;;8.27;;
60502;SDS011;51448;51.660;5.824;2024-03-22T12:51:55;12.70;;;8.68;;
60502;SDS011;51448;51.660;5.824;2024-03-22T12:54:23;13.10;;;8.38;;
60502;SDS011;51448;51.660;5.824;2024-03-22T12:56:51;14.80;;;8.00;;
60502;SDS011;51448;51.660;5.824;2024-03-22T12:59:18;9.93;;;7.82;;
60502;SDS011;51448;51.660;5.824;2024-03-22T13:01:45;10.82;;;7.80;;
60502;SDS011;51448;51.660;5.824;2024-03-22T13:04:13;10.95;;;8.00;;
60502;SDS011;51448;51.660;5.824;2024-03-22T13:06:40;10.73;;;7.75;;
60502;SDS011;51448;51.660;5.824;2024-03-22T13:09:07;11.40;;;8.50;;
60502;SDS011;51448;51.660;5.824;2024-03-22T13:11:35;13.93;;;9.30;;
60502;SDS011;51448;51.660;5.824;2024-03-22T13:14:03;11.13;;;7.43;;
60502;SDS011;51448;51.660;5.824;2024-03-22T13:16:30;11.20;;;8.65;;
60502;SDS011;51448;51.660;5.824;2024-03-22T13:18:57;12.82;;;8.88;;
60502;SDS011;51448;51.660;5.824;2024-03-22T13:21:23;10.02;;;7.43;;
60502;SDS011;51448;51.660;5.824;2024-03-22T13:23:51;13.73;;;8.00;;
60502;SDS011;51448;51.660;5.824;2024-03-22T13:26:17;11.25;;;7.45;;
60502;SDS011;51448;51.660;5.824;2024-03-22T13:28:44;12.20;;;7.97;;
60502;SDS011;51448;51.660;5.824;2024-03-22T13:31:11;12.32;;;8.65;;
60502;SDS011;51448;51.660;5.824;2024-03-22T13:33:37;12.02;;;7.80;;
60502;SDS011;51448;51.660;5.824;2024-03-22T13:36:04;11.75;;;8.38;;
60502;SDS011;51448;51.660;5.824;2024-03-22T13:38:31;12.27;;;8.57;;
60502;SDS011;51448;51.660;5.824;2024-03-22T13:40:58;11.75;;;8.00;;
60502;SDS011;51448;51.660;5.824;2024-03-22T13:43:26;11.93;;;8.18;;
60502;SDS011;51448;51.660;5.824;2024-03-22T13:45:56;12.32;;;9.20;;
60502;SDS011;51448;51.660;5.824;2024-03-22T13:48:24;13.00;;;8.77;;
60502;SDS011;51448;51.660;5.824;2024-03-22T13:50:52;13.85;;;8.43;;
60502;SDS011;51448;51.660;5.824;2024-03-22T13:53:22;15.43;;;8.83;;
60502;SDS011;51448;51.660;5.824;2024-03-22T13:55:50;12.43;;;8.27;;
60502;SDS011;51448;51.660;5.824;2024-03-22T13:58:19;10.77;;;8.18;;
60502;SDS011;51448;51.660;5.824;2024-03-22T14:00:46;11.15;;;8.43;;
60502;SDS011;51448;51.660;5.824;2024-03-22T14:03:13;11.00;;;8.25;;
60502;SDS011;51448;51.660;5.824;2024-03-22T14:05:40;10.60;;;7.57;;
60502;SDS011;51448;51.660;5.824;2024-03-22T14:08:07;10.65;;;7.22;;
60502;SDS011;51448;51.660;5.824;2024-03-22T14:10:34;9.80;;;8.13;;
60502;SDS011;51448;51.660;5.824;2024-03-22T14:13:01;11.50;;;8.38;;
60502;SDS011;51448;51.660;5.824;2024-03-22T14:15:28;12.20;;;8.20;;
60502;SDS011;51448;51.660;5.824;2024-03-22T14:17:58;10.27;;;7.10;;
60502;SDS011;51448;51.660;5.824;2024-03-22T14:20:24;9.23;;;7.50;;
60502;SDS011;51448;51.660;5.824;2024-03-22T14:22:51;7.95;;;6.53;;
60502;SDS011;51448;51.660;5.824;2024-03-22T14:25:18;8.80;;;6.07;;
60502;SDS011;51448;51.660;5.824;2024-03-22T14:27:45;8.65;;;6.00;;